Observations for Trim Market St
| Time | AQI | Temp °C | Hum % | Pres Pa | CO μg/m³ | H₂S μg/m³ | NO μg/m³ | NO₂ μg/m³ | O₃ μg/m³ | SO₂ μg/m³ | PM1 μg/m³ | PM2.5 μg/m³ | PM10 μg/m³ |
|---|---|---|---|---|---|---|---|---|---|---|---|---|---|
| Tuesday 18 August 2026 | |||||||||||||
| 05:17 | 2 | 17.6 | 76 | 31,604 | 0.09 | 0 | 1.89 | 5.35 | 65.86 | 0 | 0.71 | 2.32 | 5.15 |
| 05:16 | 2 | 17.6 | 76 | 31,881 | 0.09 | 0 | 1.89 | 4.92 | 64.75 | 0 | 0 | 1.84 | 4.56 |
| 05:15 | 2 | 17.6 | 75 | 32,133 | 0.14 | 0 | 1.88 | 7.09 | 76.94 | 0 | 0.71 | 2.32 | 6.34 |
| 05:14 | 2 | 17.6 | 75 | 32,338 | 0.42 | 0 | 1.87 | 6.55 | 76.91 | 0 | 0.71 | 3.28 | 5.75 |
| 05:13 | 2 | 17.6 | 75 | 32,513 | 0.17 | 0 | 1.88 | 5.83 | 64.23 | 0 | 0 | 1.85 | 3.96 |
| 05:12 | 2 | 17.6 | 75 | 32,749 | 0.1 | 0 | 1.85 | 4.86 | 71.67 | 0 | 0.71 | 2.33 | 5.74 |
| 05:10 | 2 | 17.6 | 75 | 32,974 | 0.1 | 0 | 1.89 | 7.56 | 80.35 | 0 | 0.71 | 2.33 | 5.74 |
| 05:09 | 2 | 17.6 | 75 | 33,287 | 0.09 | 0 | 1.89 | 5.39 | 69.36 | 0 | 1.43 | 2.81 | 5.15 |
| 05:07 | 2 | 17.7 | 75 | 33,954 | 0.09 | 0 | 1.87 | 5.28 | 69.31 | 0 | 0.71 | 2.34 | 5.14 |
| 05:06 | 2 | 17.7 | 75 | 34,356 | 0.08 | 0 | 1.88 | 5.83 | 70.73 | 0 | 0.71 | 2.34 | 4.55 |
| 05:05 | 2 | 17.7 | 75 | 34,793 | 0.1 | 0 | 1.87 | 5.94 | 75.78 | 0 | 0.71 | 3.3 | 5.74 |
| 05:04 | 2 | 17.7 | 75 | 35,267 | 0.08 | 0 | 1.85 | 6.49 | 75.66 | 0 | 1.43 | 3.3 | 7.53 |
| 05:03 | 2 | 17.7 | 75 | 35,765 | 0.09 | 0 | 1.86 | 4.98 | 68.91 | 0 | 0 | 2.35 | 5.14 |
| 05:02 | 2 | 17.7 | 75 | 36,333 | 0.1 | 0 | 1.87 | 6.41 | 74.78 | 0 | 1.43 | 3.79 | 6.33 |
| 05:01 | 2 | 17.7 | 75 | 36,977 | 0.09 | 0 | 1.86 | 5.32 | 76.33 | 0 | 0.71 | 1.87 | 4.54 |
| 04:59 | 2 | 17.7 | 75 | 38,310 | 0.09 | 0 | 1.87 | 5.69 | 71.07 | 0 | 1.43 | 3.32 | 6.33 |
| 04:55 | 2 | 17.7 | 74 | 40,641 | 0.09 | 0 | 1.88 | 6.37 | 78.21 | 0 | 0.71 | 2.85 | 5.73 |
| 04:52 | 2 | 17.8 | 74 | 41,963 | 0.09 | 0 | 1.87 | 5.46 | 66.75 | 0 | 1.43 | 3.34 | 5.73 |
| 04:44 | 2 | 17.8 | 74 | 43,358 | 0.08 | 0 | 1.86 | 4.83 | 63.9 | 0 | 0.71 | 1.9 | 3.92 |
| 04:43 | 2 | 17.8 | 74 | 43,375 | 0.07 | 0 | 1.79 | 5.2 | 65.7 | 0 | 1.43 | 2.86 | 5.12 |